Time;durP1;ratioP1;P1;durP2;ratioP2;P2;SDS_P1;SDS_P2;PMS_P1;PMS_P2;Temp;Humidity;BMP_temperature;BMP_pressure;BME280_temperature;BME280_humidity;BME280_pressure;Samples;Min_cycle;Max_cycle;Signal;HPM_P1;HPM_P2
2021/12/12 00:01:34;;;;;;;6.25;2.38;;;;;;;17.23;62.22;98641.31;3125704;28;20041;-52
2021/12/12 00:03:16;;;;;;;6.60;2.65;;;;;;;17.20;62.22;98650.59;3127947;28;20099;-50
2021/12/12 00:04:50;;;;;;;5.75;2.10;;;;;;;17.18;62.46;98644.56;3126092;28;20053;-47
2021/12/12 00:06:26;;;;;;;5.43;2.53;;;;;;;17.17;62.44;98650.16;3125975;28;20082;-53
2021/12/12 00:07:58;;;;;;;5.20;2.25;;;;;;;17.15;62.27;98649.50;3124412;28;20055;-49
2021/12/12 00:09:33;;;;;;;6.95;2.25;;;;;;;17.13;62.36;98654.22;3125122;28;20037;-49
2021/12/12 00:11:08;;;;;;;5.68;1.95;;;;;;;17.11;62.46;98650.94;3127367;28;20044;-51
2021/12/12 00:12:44;;;;;;;7.07;2.03;;;;;;;17.10;62.45;98650.06;3125265;28;20049;-50
2021/12/12 00:14:20;;;;;;;5.22;1.77;;;;;;;17.08;62.49;98654.81;3127217;28;20761;-48
2021/12/12 00:15:52;;;;;;;4.95;2.17;;;;;;;17.06;62.51;98662.22;3124991;28;20144;-48
2021/12/12 00:17:25;;;;;;;4.93;1.77;;;;;;;17.04;62.50;98661.56;3125952;28;20041;-53
2021/12/12 00:19:00;;;;;;;4.90;1.67;;;;;;;17.04;62.44;98661.56;3126474;28;20136;-52
2021/12/12 00:20:33;;;;;;;6.57;3.05;;;;;;;17.02;62.52;98668.16;3124469;28;20131;-50
2021/12/12 00:22:07;;;;;;;4.85;2.05;;;;;;;17.00;62.59;98665.66;3127010;28;20144;-47
2021/12/12 00:23:39;;;;;;;3.90;2.08;;;;;;;16.98;62.68;98675.75;3126617;28;20048;-50
2021/12/12 00:25:12;;;;;;;5.72;2.33;;;;;;;16.95;62.61;98671.59;3124437;28;20072;-53
2021/12/12 00:26:47;;;;;;;5.88;2.95;;;;;;;16.94;62.65;98682.53;3126585;28;20053;-50
2021/12/12 00:28:21;;;;;;;3.10;2.40;;;;;;;16.94;62.87;98682.53;3125748;28;20753;-52
2021/12/12 00:29:55;;;;;;;6.57;1.77;;;;;;;16.91;62.96;98678.38;3124782;28;20716;-51
2021/12/12 00:31:28;;;;;;;2.28;1.25;;;;;;;16.90;62.87;98683.91;3123636;28;20136;-55
2021/12/12 00:33:01;;;;;;;6.75;2.00;;;;;;;16.87;62.81;98686.97;3126751;28;20090;-51
2021/12/12 00:34:37;;;;;;;4.05;2.03;;;;;;;16.86;62.91;98690.69;3124218;28;20705;-54
2021/12/12 00:36:10;;;;;;;3.65;1.50;;;;;;;16.83;62.98;98683.03;3124237;28;20068;-53
2021/12/12 00:37:43;;;;;;;4.50;1.45;;;;;;;16.80;62.96;98686.06;3123366;28;20518;-51
2021/12/12 00:39:21;;;;;;;3.40;1.63;;;;;;;16.78;63.11;98688.94;3126269;28;20128;-46
2021/12/12 00:40:54;;;;;;;3.10;1.67;;;;;;;16.78;63.19;98685.44;3126429;28;20107;-49
2021/12/12 00:42:30;;;;;;;2.35;1.17;;;;;;;16.75;63.12;98684.78;3126249;28;20048;-52
2021/12/12 00:44:06;;;;;;;2.53;2.05;;;;;;;16.74;63.05;98695.66;3126636;28;20133;-45
2021/12/12 00:45:39;;;;;;;3.78;1.38;;;;;;;16.73;63.19;98694.00;3120123;28;20124;-48
2021/12/12 00:47:10;;;;;;;6.90;1.92;;;;;;;16.69;63.21;98690.88;3125501;28;20137;-48
2021/12/12 00:48:45;;;;;;;5.43;1.83;;;;;;;16.70;63.28;98694.41;3124349;28;20037;-51
2021/12/12 00:50:25;;;;;;;5.07;1.80;;;;;;;16.66;63.20;98691.28;3126890;28;20041;-51
2021/12/12 00:51:57;;;;;;;4.57;1.70;;;;;;;16.65;63.22;98689.59;3124856;28;20302;-48
2021/12/12 00:53:29;;;;;;;5.60;1.35;;;;;;;16.65;63.31;98710.19;3123310;28;20041;-49
2021/12/12 00:55:02;;;;;;;2.40;1.65;;;;;;;16.63;63.37;98706.88;3124845;28;20687;-47
2021/12/12 00:56:33;;;;;;;4.90;1.88;;;;;;;16.62;63.45;98716.75;3126711;28;20079;-49
2021/12/12 00:58:06;;;;;;;2.85;1.30;;;;;;;16.60;63.39;98710.75;3125765;28;20048;-54
2021/12/12 00:59:39;;;;;;;1.15;1.02;;;;;;;16.58;63.37;98715.50;3125301;28;20063;-52
2021/12/12 01:01:13;;;;;;;4.65;1.70;;;;;;;16.56;63.39;98714.84;3123125;28;20124;-50
2021/12/12 01:02:45;;;;;;;8.23;1.85;;;;;;;16.54;63.40;98715.00;3121720;28;20137;-53
2021/12/12 01:04:22;;;;;;;3.55;1.30;;;;;;;16.53;63.58;98718.72;3113238;28;20054;-49
2021/12/12 01:05:57;;;;;;;7.57;2.10;;;;;;;16.51;63.48;98722.59;3112790;28;20111;-44
2021/12/12 01:07:31;;;;;;;2.03;1.13;;;;;;;16.51;63.51;98719.91;3123132;28;20099;-47
2021/12/12 01:09:10;;;;;;;3.75;1.85;;;;;;;16.47;63.44;98718.66;3127542;28;20048;-48
2021/12/12 01:10:46;;;;;;;4.10;1.77;;;;;;;16.45;63.65;98720.69;3120248;28;20139;-51
2021/12/12 01:12:30;;;;;;;4.10;1.88;;;;;;;16.44;63.53;98725.22;3113157;28;20045;-53
2021/12/12 01:14:06;;;;;;;3.47;1.88;;;;;;;16.42;63.55;98715.69;3114675;28;20148;-50
2021/12/12 01:15:42;;;;;;;2.10;1.08;;;;;;;16.41;63.63;98722.06;3116137;28;20041;-49
2021/12/12 01:17:20;;;;;;;2.63;1.33;;;;;;;16.39;63.53;98724.94;3127048;28;20106;-45
2021/12/12 01:19:00;;;;;;;4.05;1.80;;;;;;;16.37;63.63;98723.47;3124469;28;20049;-46
2021/12/12 01:20:37;;;;;;;1.95;1.08;;;;;;;16.35;63.56;98723.63;3125785;28;20044;-49
2021/12/12 01:22:16;;;;;;;3.38;1.80;;;;;;;16.34;63.68;98723.84;3126077;28;20048;-52
2021/12/12 01:23:52;;;;;;;4.80;2.03;;;;;;;16.32;63.63;98726.69;3126272;28;20044;-51
2021/12/12 01:25:28;;;;;;;4.32;1.30;;;;;;;16.31;63.72;98728.53;3123348;28;20525;-47
2021/12/12 01:27:03;;;;;;;5.50;1.88;;;;;;;16.28;63.67;98726.22;3126813;28;20044;-53
2021/12/12 01:28:38;;;;;;;3.72;1.33;;;;;;;16.27;63.74;98723.75;3125717;28;20041;-47
2021/12/12 01:30:11;;;;;;;3.38;1.45;;;;;;;16.25;63.81;98734.63;3126531;28;20564;-56
2021/12/12 01:31:48;;;;;;;4.70;1.35;;;;;;;16.24;63.76;98730.31;3123167;28;20705;-48
2021/12/12 01:33:32;;;;;;;4.68;1.55;;;;;;;16.22;63.64;98721.63;3125900;28;20048;-51
2021/12/12 01:35:14;;;;;;;3.22;1.35;;;;;;;16.21;63.71;98729.84;3125291;28;20041;-54
2021/12/12 01:36:57;;;;;;;4.60;1.63;;;;;;;16.17;63.66;98732.06;3124111;28;20067;-53
2021/12/12 01:40:25;;;;;;;6.68;2.20;;;;;;;16.16;63.89;98735.75;3126185;28;20041;-51
2021/12/12 01:42:01;;;;;;;3.00;1.70;;;;;;;16.16;63.87;98743.78;3127012;28;20053;-52
2021/12/12 01:43:40;;;;;;;4.15;1.67;;;;;;;16.13;64.11;98738.81;3124391;28;20052;-50
2021/12/12 01:45:15;;;;;;;4.72;1.48;;;;;;;16.13;63.98;98740.63;3124614;28;20106;-47
2021/12/12 01:46:54;;;;;;;2.58;1.63;;;;;;;16.11;64.07;98746.19;3123911;28;20646;-52
2021/12/12 01:48:30;;;;;;;3.85;1.55;;;;;;;16.09;64.14;98737.50;3125348;28;20566;-55
2021/12/12 01:50:06;;;;;;;4.47;1.80;;;;;;;16.07;64.10;98739.53;3125972;28;20041;-52
2021/12/12 01:51:38;;;;;;;4.82;1.63;;;;;;;16.06;64.22;98745.91;3124471;28;20041;-53
2021/12/12 01:53:13;;;;;;;3.70;1.67;;;;;;;16.04;64.12;98748.75;3125780;28;20052;-47
2021/12/12 01:54:51;;;;;;;1.80;1.30;;;;;;;16.03;64.24;98738.25;3123578;28;20084;-49
2021/12/12 01:56:26;;;;;;;4.35;1.05;;;;;;;16.01;64.14;98741.09;3123506;28;20684;-48
2021/12/12 01:58:01;;;;;;;2.13;1.75;;;;;;;16.01;64.03;98740.25;3125409;28;20080;-50
2021/12/12 01:59:36;;;;;;;3.95;1.63;;;;;;;15.99;64.21;98743.13;3125740;28;20091;-51
2021/12/12 02:01:13;;;;;;;2.38;1.23;;;;;;;15.97;64.29;98739.00;3124896;28;20049;-54
2021/12/12 02:02:45;;;;;;;3.92;1.77;;;;;;;15.96;64.61;98742.66;3125052;28;20110;-55
2021/12/12 02:04:21;;;;;;;4.75;2.30;;;;;;;15.94;64.42;98736.69;3124568;28;20048;-50
2021/12/12 02:05:54;;;;;;;4.13;2.08;;;;;;;15.92;64.34;98734.19;3126344;28;20075;-53
2021/12/12 02:07:30;;;;;;;4.78;1.40;;;;;;;15.91;64.42;98737.03;3125170;28;20127;-52
2021/12/12 02:09:05;;;;;;;2.75;1.00;;;;;;;15.90;64.55;98744.22;3125864;28;20083;-49
2021/12/12 02:10:42;;;;;;;3.25;1.50;;;;;;;15.89;64.53;98747.09;3125131;28;20048;-50
2021/12/12 02:12:14;;;;;;;2.03;1.05;;;;;;;15.88;64.58;98734.72;3125700;28;20063;-52
2021/12/12 02:13:53;;;;;;;2.08;1.20;;;;;;;15.85;64.36;98744.78;3125849;28;21653;-50
2021/12/12 02:15:25;;;;;;;3.08;1.40;;;;;;;15.83;64.53;98738.78;3125148;28;20052;-48
2021/12/12 02:17:00;;;;;;;3.60;1.33;;;;;;;15.83;64.71;98741.47;3126891;28;20083;-48
2021/12/12 02:18:37;;;;;;;4.95;1.80;;;;;;;15.82;64.62;98736.28;3124699;28;20693;-49
2021/12/12 02:20:17;;;;;;;6.00;1.35;;;;;;;15.81;64.69;98737.31;3121244;28;20052;-47
2021/12/12 02:22:01;;;;;;;1.90;1.45;;;;;;;15.82;64.71;98746.97;3112985;28;20073;-46
2021/12/12 02:23:46;;;;;;;2.00;1.10;;;;;;;15.81;64.63;98742.66;3115595;28;20080;-49
2021/12/12 02:36:23;;;;;;;5.28;1.17;;;;;;;15.78;64.74;98754.53;3126100;28;20060;-48
2021/12/12 02:37:58;;;;;;;3.28;1.95;;;;;;;15.78;64.81;98759.06;3126034;28;20144;-48
2021/12/12 02:39:32;;;;;;;4.43;1.90;;;;;;;15.77;64.64;98760.91;3123294;28;20048;-47
2021/12/12 02:41:08;;;;;;;4.25;1.80;;;;;;;15.77;64.68;98760.91;3122916;28;20041;-49
2021/12/12 02:42:41;;;;;;;2.50;1.08;;;;;;;15.76;64.81;98763.75;3125373;28;20714;-46
2021/12/12 02:44:13;;;;;;;5.68;1.25;;;;;;;15.75;64.70;98768.28;3124540;28;20052;-48
2021/12/12 02:45:46;;;;;;;2.78;1.33;;;;;;;15.75;64.77;98770.97;3123170;28;20543;-48
2021/12/12 02:47:20;;;;;;;2.67;1.23;;;;;;;15.75;64.53;98770.97;3125969;28;20476;-47
2021/12/12 02:48:58;;;;;;;3.30;1.30;;;;;;;15.74;64.66;98771.13;3125278;28;20736;-47
2021/12/12 02:50:35;;;;;;;2.38;1.50;;;;;;;15.72;64.60;98765.97;3124585;28;20720;-47
2021/12/12 02:52:09;;;;;;;3.67;1.23;;;;;;;15.73;64.69;98774.81;3125710;28;20410;-45
2021/12/12 02:53:44;;;;;;;1.58;1.13;;;;;;;15.72;64.61;98778.53;3124682;28;20156;-46
2021/12/12 02:55:21;;;;;;;6.03;1.50;;;;;;;15.71;64.76;98780.38;3124415;28;20090;-46
2021/12/12 02:56:53;;;;;;;2.25;1.10;;;;;;;15.69;64.74;98779.72;3117348;28;20037;-46
2021/12/12 02:58:27;;;;;;;1.85;0.85;;;;;;;15.69;64.56;98785.06;3124468;28;20068;-45
2021/12/12 02:59:58;;;;;;;2.28;1.35;;;;;;;15.68;64.62;98787.88;3126080;28;20135;-49
2021/12/12 03:01:35;;;;;;;3.65;1.60;;;;;;;15.68;64.61;98793.22;3126842;28;20528;-47
2021/12/12 03:03:07;;;;;;;1.48;1.02;;;;;;;15.67;64.75;98791.56;3127152;28;20466;-51
2021/12/12 03:04:40;;;;;;;2.83;1.05;;;;;;;15.65;64.73;98789.06;3126775;28;20477;-47
2021/12/12 03:06:17;;;;;;;3.35;1.38;;;;;;;15.64;64.66;98792.75;3128508;28;20099;-47
2021/12/12 03:07:49;;;;;;;2.05;1.30;;;;;;;15.65;64.85;98799.75;3127191;28;20788;-48
2021/12/12 03:09:24;;;;;;;2.28;1.17;;;;;;;15.63;64.79;98804.47;3127733;28;20599;-45
2021/12/12 03:10:58;;;;;;;6.88;1.40;;;;;;;15.62;64.95;98800.94;3124716;28;20123;-47
2021/12/12 03:12:33;;;;;;;1.83;1.15;;;;;;;15.62;64.96;98803.63;3126455;28;20150;-49
2021/12/12 03:14:06;;;;;;;3.28;1.33;;;;;;;15.61;64.90;98809.97;3128603;28;20049;-49
2021/12/12 03:15:41;;;;;;;2.83;1.38;;;;;;;15.61;65.03;98809.97;3126861;28;20049;-48
2021/12/12 03:17:21;;;;;;;2.83;1.92;;;;;;;15.60;64.85;98802.97;3129368;28;20127;-46
2021/12/12 03:18:53;;;;;;;2.05;1.40;;;;;;;15.58;64.96;98813.03;3127472;28;20068;-47
2021/12/12 03:20:31;;;;;;;5.10;1.50;;;;;;;15.57;64.85;98814.03;3126078;28;20776;-48
2021/12/12 03:22:07;;;;;;;4.55;1.35;;;;;;;15.57;64.88;98815.84;3127918;28;20518;-46
2021/12/12 03:23:38;;;;;;;3.55;2.10;;;;;;;15.55;65.04;98818.72;3126096;28;20045;-49
2021/12/12 03:25:10;;;;;;;;;;;;;;;15.55;65.05;98820.56;3126787;28;20143;-45
2021/12/12 03:26:45;;;;;;;1.45;1.10;;;;;;;15.54;65.04;98819.72;3125800;28;19974;-47
2021/12/12 03:28:21;;;;;;;4.32;2.38;;;;;;;15.54;64.85;98824.25;3123171;28;20037;-50
2021/12/12 03:29:53;;;;;;;2.83;1.38;;;;;;;15.52;65.01;98820.94;3126893;28;20148;-53
2021/12/12 03:31:28;;;;;;;4.63;1.40;;;;;;;15.51;65.06;98821.94;3125628;28;20053;-48
2021/12/12 03:33:00;;;;;;;5.20;1.48;;;;;;;15.50;64.90;98820.28;3115358;28;20045;-46
2021/12/12 03:34:35;;;;;;;2.10;1.48;;;;;;;15.48;64.96;98816.94;3114443;28;20053;-47
2021/12/12 03:36:11;;;;;;;1.55;1.02;;;;;;;15.48;65.04;98819.63;3115332;28;20622;-47
2021/12/12 03:37:43;;;;;;;3.90;1.27;;;;;;;15.47;65.06;98823.31;3123343;28;20565;-49
2021/12/12 03:39:18;;;;;;;3.17;1.38;;;;;;;15.44;65.05;98826.34;3128873;28;20041;-52
2021/12/12 03:40:50;;;;;;;2.17;0.93;;;;;;;15.44;65.02;98818.31;3127838;28;20041;-50
2021/12/12 03:42:26;;;;;;;3.25;1.30;;;;;;;15.42;65.07;98832.69;3126201;28;20103;-47
2021/12/12 03:44:01;;;;;;;3.03;1.30;;;;;;;15.40;65.00;98824.00;3124849;28;20056;-51
2021/12/12 03:45:34;;;;;;;2.03;1.42;;;;;;;15.41;65.05;98830.19;3124218;28;20092;-46
2021/12/12 03:47:10;;;;;;;3.53;1.55;;;;;;;15.39;65.20;98827.69;3127575;28;20148;-47
2021/12/12 03:48:44;;;;;;;2.40;1.00;;;;;;;15.39;65.05;98832.22;3124521;28;20076;-47
2021/12/12 03:50:21;;;;;;;3.13;1.40;;;;;;;15.38;65.18;98834.06;3126062;28;20048;-46
2021/12/12 03:51:53;;;;;;;3.83;1.42;;;;;;;15.37;65.27;98828.88;3126388;28;20128;-46
2021/12/12 03:53:26;;;;;;;2.60;1.17;;;;;;;15.36;65.33;98838.75;3124611;28;20128;-46
2021/12/12 03:55:00;;;;;;;6.35;1.50;;;;;;;15.36;65.27;98838.75;3125795;28;20049;-46
2021/12/12 03:56:33;;;;;;;3.03;1.25;;;;;;;15.34;65.35;98837.25;3126215;28;20155;-48
2021/12/12 03:58:07;;;;;;;4.97;1.58;;;;;;;15.33;65.06;98849.78;3127283;28;20143;-46
2021/12/12 03:59:40;;;;;;;2.08;0.80;;;;;;;15.32;65.28;98837.44;3121039;28;20144;-48
2021/12/12 04:01:16;;;;;;;3.35;1.35;;;;;;;15.31;65.09;98848.31;3124845;28;20103;-46
2021/12/12 04:02:48;;;;;;;2.95;1.33;;;;;;;15.34;65.69;98845.28;3126788;28;20065;-47
2021/12/12 04:04:27;;;;;;;1.20;1.10;;;;;;;15.33;65.54;98848.97;3126705;28;20120;-47
2021/12/12 04:06:01;;;;;;;2.03;1.55;;;;;;;15.35;65.43;98852.25;3126418;28;20078;-49
2021/12/12 04:07:33;;;;;;;1.90;1.40;;;;;;;15.37;65.57;98858.28;3125273;28;20052;-48
2021/12/12 04:09:07;;;;;;;2.25;1.30;;;;;;;15.39;65.43;98866.97;3124318;28;20049;-46
2021/12/12 04:10:39;;;;;;;1.92;1.38;;;;;;;15.39;65.48;98867.78;3125178;28;20052;-49
2021/12/12 04:12:14;;;;;;;3.70;1.60;;;;;;;15.42;65.50;98863.94;3127260;28;20064;-47
2021/12/12 04:13:50;;;;;;;4.35;1.10;;;;;;;15.44;65.38;98871.78;3123381;28;20057;-48
2021/12/12 04:15:23;;;;;;;1.63;0.98;;;;;;;15.44;65.38;98869.09;3118983;28;20049;-50
2021/12/12 04:16:59;;;;;;;3.72;1.25;;;;;;;15.46;65.40;98878.63;3126438;28;20671;-47
2021/12/12 04:18:31;;;;;;;1.67;1.38;;;;;;;15.46;65.29;98886.63;3126059;28;20045;-45
2021/12/12 04:20:12;;;;;;;3.60;1.27;;;;;;;15.46;65.24;98880.44;3125433;28;20041;-46
2021/12/12 04:21:45;;;;;;;2.35;1.23;;;;;;;15.47;65.19;98884.78;3125320;28;20056;-48
2021/12/12 04:23:18;;;;;;;4.25;1.00;;;;;;;15.46;65.34;98883.97;3126330;28;20053;-46
2021/12/12 04:24:52;;;;;;;1.95;0.80;;;;;;;15.48;65.24;98889.13;3120146;28;20104;-48
2021/12/12 04:26:28;;;;;;;3.78;1.38;;;;;;;15.48;65.17;98894.47;3124961;28;20103;-48
2021/12/12 04:27:59;;;;;;;2.85;1.30;;;;;;;15.47;65.16;98895.47;3125722;28;20110;-48
2021/12/12 04:29:36;;;;;;;1.52;1.23;;;;;;;15.47;65.37;98898.16;3124093;28;20721;-48
2021/12/12 04:31:08;;;;;;;2.42;0.90;;;;;;;15.47;65.21;98898.97;3124795;28;20076;-50
2021/12/12 04:32:41;;;;;;;1.98;1.10;;;;;;;15.48;65.32;98905.16;3124147;28;20045;-47
2021/12/12 04:34:13;;;;;;;2.25;1.30;;;;;;;15.47;65.18;98895.47;3121574;28;20079;-50
2021/12/12 04:35:44;;;;;;;2.33;1.60;;;;;;;15.47;65.18;98903.50;3122604;28;20147;-51
2021/12/12 04:37:17;;;;;;;3.35;1.20;;;;;;;15.47;65.26;98903.50;3126915;28;20049;-49
2021/12/12 04:38:48;;;;;;;2.30;1.17;;;;;;;15.47;65.20;98907.00;3125889;28;20453;-47
2021/12/12 04:40:21;;;;;;;;;;;;;;;15.46;65.17;98901.81;3126890;28;20140;-48
2021/12/12 04:41:58;;;;;;;2.33;1.33;;;;;;;15.45;65.40;98911.69;3126773;28;20366;-49
2021/12/12 04:43:30;;;;;;;2.97;1.13;;;;;;;15.45;65.22;98918.88;3123326;28;20534;-49
2021/12/12 04:45:17;;;;;;;3.88;1.27;;;;;;;15.45;65.08;98921.56;3124579;28;20127;-45
2021/12/12 04:50:43;;;;;;;2.35;1.17;;;;;;;15.41;65.05;98924.56;3111605;28;20045;-48
2021/12/12 04:52:15;;;;;;;1.75;1.02;;;;;;;15.41;65.25;98919.22;3110306;28;20164;-48
2021/12/12 04:53:52;;;;;;;2.88;1.38;;;;;;;15.41;65.17;98924.56;3113072;28;20140;-49
2021/12/12 04:55:28;;;;;;;2.00;1.00;;;;;;;15.40;65.21;98925.56;3120382;28;20132;-47
2021/12/12 04:57:04;;;;;;;2.40;1.27;;;;;;;15.39;65.17;98934.59;3125700;28;20088;-48
2021/12/12 04:58:40;;;;;;;2.22;1.17;;;;;;;15.38;65.11;98932.13;3124568;28;20064;-49
2021/12/12 05:00:17;;;;;;;2.83;1.05;;;;;;;15.37;65.10;98933.94;3122696;28;20440;-46
2021/12/12 05:01:57;;;;;;;1.75;1.15;;;;;;;15.38;65.09;98937.47;3111035;28;20111;-46
2021/12/12 05:03:37;;;;;;;1.55;1.00;;;;;;;15.36;65.11;98937.63;3112141;28;20609;-51
2021/12/12 05:05:14;;;;;;;2.30;1.55;;;;;;;15.35;65.19;98937.78;3124103;28;20488;-46
2021/12/12 05:06:50;;;;;;;0.80;0.80;;;;;;;15.34;65.50;98939.63;3125158;28;20128;-49
2021/12/12 05:08:32;;;;;;;1.85;0.98;;;;;;;15.37;65.36;98936.59;3125675;28;20052;-48
2021/12/12 05:10:11;;;;;;;1.90;0.90;;;;;;;15.40;65.51;98930.91;3122437;28;20049;-48
2021/12/12 05:11:51;;;;;;;1.50;0.75;;;;;;;15.46;65.20;98933.91;3124746;28;20041;-49
2021/12/12 05:13:29;;;;;;;1.95;1.17;;;;;;;15.54;65.25;98936.53;3124820;28;20509;-46
2021/12/12 05:15:19;;;;;;;1.33;1.10;;;;;;;15.63;65.19;98940.84;3125924;28;20123;-50
2021/12/12 05:16:54;;;;;;;1.83;1.25;;;;;;;15.70;65.10;98949.81;3125669;28;20151;-48
2021/12/12 05:18:30;;;;;;;3.40;1.67;;;;;;;15.77;65.04;98942.78;3123715;28;20727;-46
2021/12/12 05:20:07;;;;;;;1.90;1.20;;;;;;;15.84;64.83;98942.88;3123934;28;20041;-47
2021/12/12 05:21:43;;;;;;;1.95;1.08;;;;;;;15.91;64.75;98938.50;3125990;28;20122;-49
2021/12/12 05:23:19;;;;;;;3.28;1.08;;;;;;;15.98;64.62;98942.09;3126338;28;20045;-46
2021/12/12 05:24:54;;;;;;;1.10;0.80;;;;;;;16.03;64.71;98947.75;3123991;28;20550;-48
2021/12/12 05:26:30;;;;;;;1.33;0.75;;;;;;;16.09;64.49;98951.56;3126021;28;20105;-46
2021/12/12 05:28:03;;;;;;;5.80;2.38;;;;;;;16.14;64.48;98954.53;3123916;28;20077;-51
2021/12/12 05:29:38;;;;;;;2.20;1.00;;;;;;;16.20;64.47;98964.50;3125681;28;20045;-48
2021/12/12 05:31:12;;;;;;;1.90;1.05;;;;;;;16.27;64.31;98956.63;3126097;28;20139;-47
2021/12/12 05:32:47;;;;;;;2.30;1.10;;;;;;;16.32;64.21;98967.59;3126224;28;20037;-48
2021/12/12 05:34:20;;;;;;;2.97;1.35;;;;;;;16.38;64.11;98966.88;3126400;28;20119;-46
2021/12/12 05:35:52;;;;;;;1.92;1.38;;;;;;;16.42;64.08;98973.53;3123702;28;20087;-49
2021/12/12 05:37:25;;;;;;;1.42;1.00;;;;;;;16.48;64.05;98971.97;3124922;28;20052;-50
2021/12/12 05:38:58;;;;;;;3.17;1.25;;;;;;;16.52;63.82;98974.13;3126724;28;20057;-46
2021/12/12 05:40:33;;;;;;;1.38;1.13;;;;;;;16.58;63.83;98975.22;3125176;28;20048;-45
2021/12/12 05:42:05;;;;;;;2.20;1.58;;;;;;;16.63;63.81;98983.56;3127034;28;20077;-47
2021/12/12 05:43:37;;;;;;;2.95;1.00;;;;;;;16.69;63.71;98982.00;3124372;28;20599;-46
2021/12/12 05:45:10;;;;;;;3.22;1.55;;;;;;;16.74;63.66;98987.59;3123945;28;20110;-48
2021/12/12 05:46:44;;;;;;;3.42;1.58;;;;;;;16.79;63.65;98984.41;3124906;28;20048;-46
2021/12/12 05:48:16;;;;;;;2.00;0.75;;;;;;;16.84;63.61;98995.44;3124400;28;20051;-46
2021/12/12 05:49:48;;;;;;;4.18;1.02;;;;;;;16.88;63.44;98991.34;3125316;28;20095;-46
2021/12/12 05:51:20;;;;;;;2.50;1.15;;;;;;;16.92;63.40;98996.16;3124955;28;20049;-47
2021/12/12 05:52:54;;;;;;;2.35;1.13;;;;;;;16.95;63.27;98997.66;3125058;28;20118;-47
2021/12/12 05:54:28;;;;;;;2.05;1.55;;;;;;;16.98;63.38;98995.44;3125028;28;20049;-46
2021/12/12 05:56:00;;;;;;;2.20;0.90;;;;;;;17.01;63.29;98998.75;3124992;28;20782;-50
2021/12/12 05:57:33;;;;;;;2.80;0.80;;;;;;;17.03;63.24;99004.78;3123305;28;20052;-45
2021/12/12 05:59:06;;;;;;;1.40;1.02;;;;;;;17.06;63.18;99007.09;3126734;28;20565;-47
2021/12/12 06:00:43;;;;;;;2.08;1.17;;;;;;;17.08;63.06;99005.88;3123640;28;20128;-47
2021/12/12 06:02:17;;;;;;;1.90;0.98;;;;;;;17.11;63.03;99012.72;3126796;28;20049;-48
2021/12/12 06:03:51;;;;;;;1.58;0.75;;;;;;;17.11;63.08;99018.91;3123983;28;20609;-48
2021/12/12 06:05:23;;;;;;;1.23;0.60;;;;;;;17.13;62.86;99013.34;3123338;28;20068;-51
2021/12/12 06:06:55;;;;;;;3.67;1.10;;;;;;;17.15;62.93;99011.31;3124826;28;20079;-46
2021/12/12 06:08:29;;;;;;;2.42;0.95;;;;;;;17.18;63.00;99022.50;3124654;28;20132;-49
2021/12/12 06:10:02;;;;;;;2.85;1.73;;;;;;;17.17;62.97;99020.84;3124372;28;20068;-50
2021/12/12 06:11:38;;;;;;;1.40;0.95;;;;;;;17.18;63.01;99019.81;3126072;28;20064;-50
2021/12/12 06:13:13;;;;;;;1.58;1.13;;;;;;;17.19;62.95;99021.50;3125536;28;20110;-48
2021/12/12 06:14:47;;;;;;;2.35;0.90;;;;;;;17.20;63.11;99025.84;3121755;28;20056;-48
2021/12/12 06:16:20;;;;;;;2.05;1.33;;;;;;;17.23;63.10;99031.84;3124589;28;20052;-47
2021/12/12 06:17:53;;;;;;;1.55;1.00;;;;;;;17.24;63.16;99028.97;3123234;28;20132;-48
2021/12/12 06:19:26;;;;;;;1.02;0.93;;;;;;;17.24;62.95;99028.16;3123898;28;20048;-50
2021/12/12 06:20:58;;;;;;;1.27;0.90;;;;;;;17.25;62.85;99030.66;3124774;28;20106;-46
2021/12/12 06:22:30;;;;;;;3.25;1.10;;;;;;;17.26;62.83;99045.72;3121897;28;20182;-47
2021/12/12 06:24:03;;;;;;;3.50;1.73;;;;;;;17.27;62.87;99039.31;3125557;28;20135;-45
2021/12/12 06:25:34;;;;;;;2.28;0.75;;;;;;;17.28;62.95;99043.69;3123287;28;20587;-48
2021/12/12 06:27:11;;;;;;;2.95;1.30;;;;;;;17.29;62.83;99045.34;3126791;28;20106;-47
2021/12/12 06:28:43;;;;;;;2.20;1.58;;;;;;;17.32;62.71;99053.00;3124769;28;20573;-47
2021/12/12 06:30:18;;;;;;;0.90;0.77;;;;;;;17.35;62.69;99049.13;3125486;28;20056;-47
2021/12/12 06:31:53;;;;;;;1.20;1.08;;;;;;;17.37;62.68;99055.16;3124867;28;20114;-50
2021/12/12 06:33:27;;;;;;;1.55;0.85;;;;;;;17.39;62.63;99056.63;3125094;28;21139;-46
2021/12/12 06:34:59;;;;;;;1.80;1.38;;;;;;;17.40;62.68;99063.66;3122331;28;20064;-48
2021/12/12 06:36:32;;;;;;;1.67;1.10;;;;;;;17.42;62.44;99072.34;3124497;28;20457;-47
2021/12/12 06:38:06;;;;;;;1.05;0.73;;;;;;;17.44;62.55;99074.84;3125449;28;20167;-50
2021/12/12 06:39:39;;;;;;;2.17;0.98;;;;;;;17.46;62.49;99072.81;3125159;28;20144;-46
2021/12/12 06:41:12;;;;;;;1.02;0.80;;;;;;;17.47;62.14;99065.56;3126322;28;20767;-47
2021/12/12 06:42:44;;;;;;;1.88;0.70;;;;;;;17.49;62.35;99072.44;3125202;28;20075;-49
2021/12/12 06:44:17;;;;;;;0.80;0.80;;;;;;;17.51;62.34;99080.28;3123760;28;20110;-48
2021/12/12 06:45:49;;;;;;;2.58;0.98;;;;;;;17.50;62.26;99079.47;3122597;28;20053;-51
2021/12/12 06:47:22;;;;;;;1.83;0.90;;;;;;;17.51;62.21;99091.84;3125762;28;20076;-49
2021/12/12 06:48:55;;;;;;;1.10;0.93;;;;;;;17.52;62.29;99090.00;3123817;28;20049;-50
2021/12/12 06:50:28;;;;;;;6.00;1.17;;;;;;;17.53;62.33;99100.56;3123960;28;20049;-49
2021/12/12 06:52:02;;;;;;;2.53;0.80;;;;;;;17.53;62.31;99097.88;3125035;28;20056;-49
2021/12/12 06:53:37;;;;;;;1.23;0.65;;;;;;;17.55;62.37;99111.06;3125390;28;20056;-49
2021/12/12 06:55:12;;;;;;;1.63;1.15;;;;;;;17.57;62.19;99103.69;3126025;28;20149;-48
2021/12/12 06:56:45;;;;;;;1.08;0.98;;;;;;;17.58;62.11;99119.59;3123548;28;20531;-49
2021/12/12 06:58:19;;;;;;;1.52;0.75;;;;;;;17.58;62.21;99103.50;3125412;28;20071;-47
2021/12/12 06:59:52;;;;;;;3.15;0.80;;;;;;;17.60;62.01;99114.88;3125238;28;20071;-49
2021/12/12 07:01:27;;;;;;;1.67;1.30;;;;;;;17.61;62.17;99119.25;3124515;28;20095;-48
2021/12/12 07:03:00;;;;;;;4.53;1.02;;;;;;;17.62;62.11;99115.53;3125590;28;20526;-47
2021/12/12 07:04:36;;;;;;;0.68;0.47;;;;;;;17.64;62.09;99118.88;3124744;28;20094;-47
2021/12/12 07:06:08;;;;;;;1.45;0.95;;;;;;;17.65;62.06;99125.88;3123129;28;20072;-49
2021/12/12 07:07:40;;;;;;;3.30;0.80;;;;;;;17.67;61.96;99127.56;3125085;28;20056;-47
2021/12/12 07:09:12;;;;;;;0.68;0.60;;;;;;;17.68;61.95;99121.16;3126493;28;20098;-47
2021/12/12 07:10:45;;;;;;;2.25;1.00;;;;;;;17.69;61.89;99122.81;3124112;28;20071;-52
2021/12/12 07:12:22;;;;;;;3.13;0.98;;;;;;;17.70;62.11;99124.50;3126030;28;20069;-48
2021/12/12 07:13:54;;;;;;;1.58;0.80;;;;;;;17.71;61.98;99123.47;3124588;28;20053;-49
2021/12/12 07:15:31;;;;;;;0.85;0.85;;;;;;;17.71;61.93;99118.94;3118425;28;20137;-47
2021/12/12 07:17:04;;;;;;;2.60;0.98;;;;;;;17.73;61.91;99127.66;3124309;28;20064;-49
2021/12/12 07:18:37;;;;;;;4.30;1.33;;;;;;;17.74;61.85;99120.41;3124063;28;20107;-47
2021/12/12 07:20:13;;;;;;;1.65;0.80;;;;;;;17.76;61.80;99126.44;3125986;28;20122;-48
2021/12/12 07:21:46;;;;;;;0.90;0.50;;;;;;;17.77;61.87;99128.91;3125425;28;20563;-49
2021/12/12 07:23:18;;;;;;;1.23;0.95;;;;;;;17.80;61.97;99125.94;3124680;28;20041;-46
2021/12/12 07:24:50;;;;;;;3.08;0.80;;;;;;;17.82;61.94;99123.03;3120948;28;20049;-50
2021/12/12 07:26:24;;;;;;;2.78;0.68;;;;;;;17.83;62.19;99127.41;3123993;28;20196;-45
2021/12/12 07:27:56;;;;;;;1.65;1.10;;;;;;;17.84;61.93;99126.38;3123928;28;20049;-49
2021/12/12 07:29:28;;;;;;;1.88;0.70;;;;;;;17.86;61.90;99132.41;3122596;28;20048;-46
2021/12/12 07:31:02;;;;;;;1.10;0.70;;;;;;;17.88;62.02;99135.69;3124445;28;20142;-50
2021/12/12 07:32:34;;;;;;;1.60;0.73;;;;;;;17.88;62.01;99138.38;3124469;28;20067;-49
2021/12/12 07:34:10;;;;;;;2.47;0.80;;;;;;;17.91;61.82;99137.19;3120386;28;20156;-48
2021/12/12 07:35:45;;;;;;;1.23;0.90;;;;;;;17.91;61.93;99142.56;3123531;28;20061;-48
2021/12/12 07:37:19;;;;;;;0.95;0.75;;;;;;;17.92;61.80;99141.56;3124280;28;20044;-50
2021/12/12 07:38:56;;;;;;;0.68;0.55;;;;;;;17.92;61.92;99149.59;3126367;28;20052;-51
2021/12/12 07:40:28;;;;;;;1.35;0.68;;;;;;;17.92;61.96;99138.88;3124804;28;20110;-49
2021/12/12 07:42:05;;;;;;;1.30;0.57;;;;;;;17.92;61.97;99141.56;3126232;28;20072;-49
2021/12/12 07:43:38;;;;;;;0.93;0.63;;;;;;;17.92;61.95;99142.38;3122872;28;20550;-51